メインページ
METAR-TAF:

METAR-TAF

空港 :

マル・デル・プラタ, アルゼンチン

緯度: 37-56S, 経度: 057-35W, 海抜: 18m

現時点の気象観測

当レポートは52分前の01:00(UTC)に作成
北西の風 7kt
気温 18°C
湿度 94%
気圧 1012 hPa
視程10km以上
1,500メートル以下は雲なし、積乱雲なし

METAR: SAZM 260100Z 32007KT CAVOK 18/17 Q1012

時間: 22:52 (01:52 UTC)

予報

当レポートは2時間52分前の23:00(UTC)に作成
予報は26日の 00時(UTC)から 26日の 24時(UTC)まで有効
の風 10kt
視程: 5000m
高度3000ftの雲は散在している
高度10000ftの千切れ雲あり
26日の 05時(UTC)から 26日の 07時(UTC)まで徐々に
北西の風 5kt
視程: 0500m
高度500ftの雲は散在している
26日の 10時(UTC)から 26日の 12時(UTC)まで徐々に
視程: 0900m
高度900ftの雲は散在している
高度1200ftの雲は散在している
高度2000ftの千切れ雲あり
確率 40%
26日の 12時(UTC)から 26日の 14時(UTC)まで
視程: 3000m
高度600ftの千切れ雲あり
高度4000ftの雲はほとんどない, 積乱雲.
高度3500ftの曇り
にわか雨
26日の 17時(UTC)から 26日の 19時(UTC)まで徐々に
北東の風 5kt
視程: 3000m
高度500ftの千切れ雲あり
高度3000ftの曇り
靄, 霧雨

TAF: SAZM 252300Z 2600/2624 36010KT 5000 BR SCT030 BKN100 TX20/2618Z TN15/2612Z BECMG 2605/2607 32005KT 0500 FG SCT005 BECMG 2610/2612 0900 FG SCT009 SCT012 BKN020 PROB40 2612/2614 3000 SHRA BKN006 FEW040CB OVC035 BECMG 2617/2619 05005KT 3000 BR DZ BKN005 OVC030

4,000以上の空港の気象観測と天気予報(METAR報とTAF報)

利用可能な観測所は地図上に黄色い丸と赤い丸で示す。

丸の上にカーソルを重ねると観測所名を参照できる。

次にクリックすると気象観測と天気予報を参照できる。

マップの切り替え:黒色「×」印の緑ボタンをクリックして拡大、「-」印の緑ボタンをクリックして縮小、緑色の三角印をクリックして隣りの地図に切り替え


METAR-TAF: